createdAt,value
2019-01-29T00:00:36.037Z,0.70
2019-01-29T00:03:06.796Z,0.60
2019-01-29T00:05:36.203Z,0.60
2019-01-29T00:08:05.967Z,0.60
2019-01-29T00:10:36.498Z,0.60
2019-01-29T00:13:06.094Z,0.60
2019-01-29T00:15:35.602Z,0.60
2019-01-29T00:18:05.817Z,0.50
2019-01-29T00:20:35.218Z,0.50
2019-01-29T00:23:04.974Z,0.60
2019-01-29T00:25:34.397Z,0.50
2019-01-29T00:28:03.938Z,0.50
2019-01-29T00:30:33.357Z,0.50
2019-01-29T00:33:02.725Z,0.50
2019-01-29T00:35:32.145Z,0.50
2019-01-29T00:38:01.516Z,0.50
2019-01-29T00:40:30.939Z,0.50
2019-01-29T00:43:00.306Z,0.50
2019-01-29T00:45:29.660Z,0.50
2019-01-29T00:47:59.025Z,0.60
2019-01-29T00:50:28.445Z,0.60
2019-01-29T00:52:59.312Z,0.60
2019-01-29T00:55:28.743Z,0.70
2019-01-29T00:57:58.179Z,0.70
2019-01-29T01:00:27.795Z,0.80
2019-01-29T01:02:57.252Z,0.80
2019-01-29T01:05:26.750Z,0.80
2019-01-29T01:07:56.354Z,0.80
2019-01-29T01:10:25.988Z,0.80
2019-01-29T01:12:55.504Z,0.80
2019-01-29T01:15:25.031Z,0.80
2019-01-29T01:17:54.474Z,0.80
2019-01-29T01:20:24.902Z,0.80
2019-01-29T01:22:54.412Z,0.80
2019-01-29T01:25:23.760Z,0.80
2019-01-29T01:28:00.131Z,0.80
2019-01-29T01:30:29.556Z,0.90
2019-01-29T01:32:58.923Z,0.90
2019-01-29T01:35:28.283Z,0.90
2019-01-29T01:37:57.732Z,0.90
2019-01-29T01:40:29.331Z,1.00
2019-01-29T01:42:58.791Z,1.00
2019-01-29T01:45:28.146Z,1.00
2019-01-29T01:47:57.495Z,1.00
2019-01-29T01:50:26.860Z,1.00
2019-01-29T01:52:59.403Z,1.10
2019-01-29T01:55:27.612Z,1.00
2019-01-29T01:57:56.963Z,1.10
2019-01-29T02:00:26.582Z,1.10
2019-01-29T02:02:56.048Z,1.10
2019-01-29T02:05:25.428Z,1.10
2019-01-29T02:07:54.868Z,1.20
2019-01-29T02:10:26.844Z,1.20
2019-01-29T02:12:56.642Z,1.10
2019-01-29T02:15:26.216Z,1.20
2019-01-29T02:17:55.574Z,1.20
2019-01-29T02:20:25.011Z,1.20
2019-01-29T02:22:54.506Z,1.30
2019-01-29T02:25:24.083Z,1.20
2019-01-29T02:27:53.452Z,1.20
2019-01-29T02:30:24.548Z,1.20
2019-01-29T02:32:54.044Z,1.20
2019-01-29T02:35:23.487Z,1.20
2019-01-29T02:37:52.843Z,1.10
2019-01-29T02:40:24.720Z,1.10
2019-01-29T02:42:54.222Z,1.10
2019-01-29T02:45:24.705Z,1.20
2019-01-29T02:47:54.276Z,1.10
2019-01-29T02:50:23.728Z,1.20
2019-01-29T02:52:53.096Z,1.20
2019-01-29T02:55:22.602Z,1.30
2019-01-29T02:57:52.004Z,1.30
2019-01-29T03:00:23.986Z,1.30
2019-01-29T03:02:53.674Z,1.30
2019-01-29T03:05:23.344Z,1.30
2019-01-29T03:07:52.979Z,1.30
2019-01-29T03:10:24.758Z,1.30
2019-01-29T03:12:54.345Z,1.40
2019-01-29T03:15:26.747Z,1.40
2019-01-29T03:17:56.236Z,1.40
2019-01-29T03:20:25.889Z,1.40
2019-01-29T03:22:55.322Z,1.30
2019-01-29T03:25:24.808Z,1.40
2019-01-29T03:27:54.323Z,1.40
2019-01-29T03:30:24.117Z,1.30
2019-01-29T03:32:53.555Z,1.30
2019-01-29T03:35:23.048Z,1.30
2019-01-29T03:37:52.590Z,1.30
2019-01-29T03:40:27.164Z,1.30
2019-01-29T03:42:56.608Z,1.30
2019-01-29T03:45:26.175Z,1.30
2019-01-29T03:47:55.700Z,1.30
2019-01-29T03:50:25.781Z,1.20
2019-01-29T03:52:55.697Z,1.20
2019-01-29T03:55:25.142Z,1.20
2019-01-29T03:57:54.518Z,1.20
2019-01-29T04:00:26.232Z,1.10
2019-01-29T04:02:55.844Z,1.00
2019-01-29T04:05:25.362Z,1.00
2019-01-29T04:07:55.753Z,1.10
2019-01-29T04:10:25.477Z,1.10
2019-01-29T04:12:54.828Z,1.10
2019-01-29T04:15:24.535Z,1.10
2019-01-29T04:17:56.353Z,1.10
2019-01-29T04:20:26.176Z,1.20
2019-01-29T04:22:55.638Z,1.10
2019-01-29T04:25:25.250Z,1.10
2019-01-29T04:27:54.686Z,1.10
2019-01-29T04:30:24.182Z,1.20
2019-01-29T04:32:53.617Z,1.10
2019-01-29T04:35:22.985Z,1.10
2019-01-29T04:37:52.660Z,1.10
2019-01-29T04:40:22.107Z,1.20
2019-01-29T04:42:51.813Z,1.10
2019-01-29T04:45:21.242Z,1.10
2019-01-29T04:47:50.701Z,1.10
2019-01-29T04:50:21.175Z,1.10
2019-01-29T04:52:50.783Z,1.20
2019-01-29T04:55:20.750Z,1.20
2019-01-29T04:57:50.121Z,1.10
2019-01-29T05:00:22.491Z,1.00
2019-01-29T05:02:52.086Z,1.00
2019-01-29T05:05:21.947Z,1.00
2019-01-29T05:07:51.579Z,1.00
2019-01-29T05:10:21.834Z,0.90
2019-01-29T05:12:51.281Z,0.90
2019-01-29T05:15:20.893Z,0.90
2019-01-29T05:17:51.557Z,0.80
2019-01-29T05:20:22.121Z,0.80
2019-01-29T05:22:51.569Z,0.80
2019-01-29T05:25:21.230Z,0.80
2019-01-29T05:27:50.870Z,0.80
2019-01-29T05:30:23.010Z,0.80
2019-01-29T05:32:52.813Z,0.80
2019-01-29T05:35:22.374Z,0.80
2019-01-29T05:37:51.917Z,0.80
2019-01-29T05:40:22.719Z,0.80
2019-01-29T05:42:52.423Z,0.80
2019-01-29T05:45:22.808Z,0.80
2019-01-29T05:47:52.321Z,0.80
2019-01-29T05:50:21.923Z,0.80
2019-01-29T05:52:51.485Z,0.80
2019-01-29T05:55:20.939Z,0.80
2019-01-29T05:57:50.357Z,0.80
2019-01-29T06:00:23.808Z,0.80
2019-01-29T06:02:53.168Z,0.80
2019-01-29T06:05:22.861Z,0.80
2019-01-29T06:07:53.468Z,0.80
2019-01-29T06:10:22.964Z,0.80
2019-01-29T06:12:52.543Z,0.80
2019-01-29T06:15:46.568Z,0.80
2019-01-29T06:18:16.005Z,0.80
2019-01-29T06:20:45.435Z,0.80
2019-01-29T06:23:14.908Z,0.80
2019-01-29T06:25:44.333Z,0.80
2019-01-29T06:28:13.758Z,0.90
2019-01-29T06:30:44.154Z,0.90
2019-01-29T06:33:13.731Z,0.90
2019-01-29T06:35:43.200Z,0.90
2019-01-29T06:38:12.637Z,1.00
2019-01-29T06:40:42.003Z,1.00
2019-01-29T06:43:11.404Z,1.00
2019-01-29T06:45:40.807Z,1.00
2019-01-29T06:48:10.232Z,1.00
2019-01-29T06:50:39.605Z,1.00
2019-01-29T06:53:09.047Z,1.00
2019-01-29T06:55:38.489Z,0.90
2019-01-29T06:58:07.915Z,0.90
2019-01-29T07:00:37.365Z,0.90
2019-01-29T07:03:07.050Z,0.90
2019-01-29T07:05:36.545Z,0.90
2019-01-29T07:08:05.899Z,0.90
2019-01-29T07:10:35.582Z,1.00
2019-01-29T07:13:05.205Z,1.00
2019-01-29T07:15:52.795Z,1.00
2019-01-29T07:18:23.927Z,1.00
2019-01-29T07:20:56.635Z,1.00
2019-01-29T07:23:26.005Z,0.90
2019-01-29T07:25:55.467Z,1.00
2019-01-29T07:28:24.832Z,1.00
2019-01-29T07:30:54.390Z,0.90
2019-01-29T07:33:23.829Z,0.90
2019-01-29T07:35:53.184Z,0.90
2019-01-29T07:38:22.732Z,0.90
2019-01-29T07:40:52.308Z,0.90
2019-01-29T07:43:21.752Z,0.80
2019-01-29T07:45:51.127Z,0.80
2019-01-29T07:48:20.560Z,0.90
2019-01-29T07:50:49.908Z,0.90
2019-01-29T07:53:19.579Z,0.90
2019-01-29T07:55:49.097Z,0.90
2019-01-29T07:58:20.086Z,0.90
2019-01-29T08:00:49.512Z,0.90
2019-01-29T08:03:20.026Z,0.90
2019-01-29T08:05:51.844Z,0.90
2019-01-29T08:08:21.290Z,0.90
2019-01-29T08:10:51.850Z,0.80
2019-01-29T08:13:26.073Z,0.80
2019-01-29T08:16:00.052Z,0.90
2019-01-29T08:18:29.488Z,0.80
2019-01-29T08:20:59.085Z,0.80
2019-01-29T08:23:28.528Z,0.90
2019-01-29T08:25:57.955Z,0.90
2019-01-29T08:28:27.438Z,1.00
2019-01-29T08:30:59.974Z,1.10
2019-01-29T08:33:29.354Z,1.20
2019-01-29T08:35:58.863Z,1.40
2019-01-29T08:38:28.314Z,1.40
2019-01-29T08:40:57.814Z,1.50
2019-01-29T08:43:28.894Z,1.70
2019-01-29T08:45:59.530Z,1.70
2019-01-29T08:48:29.081Z,1.70
2019-01-29T08:50:58.446Z,1.70
2019-01-29T08:53:27.878Z,1.80
2019-01-29T08:55:57.472Z,1.80
2019-01-29T08:58:27.480Z,1.80
2019-01-29T09:00:56.958Z,1.90
2019-01-29T09:03:26.318Z,1.90
2019-01-29T09:05:55.839Z,1.90
2019-01-29T09:08:25.264Z,1.90
2019-01-29T09:10:54.766Z,1.90
2019-01-29T09:13:24.144Z,2.00
2019-01-29T09:15:53.511Z,2.00
2019-01-29T09:18:23.030Z,2.00
2019-01-29T09:20:55.452Z,2.10
2019-01-29T09:23:24.913Z,2.10
2019-01-29T09:25:54.359Z,2.10
2019-01-29T09:28:23.884Z,2.20
2019-01-29T09:30:56.126Z,2.10
2019-01-29T09:33:25.636Z,2.10
2019-01-29T09:35:56.132Z,2.20
2019-01-29T09:38:25.522Z,2.20
2019-01-29T09:40:55.046Z,2.20
2019-01-29T09:43:24.478Z,2.30
2019-01-29T09:45:54.205Z,2.30
2019-01-29T09:48:23.881Z,2.30
2019-01-29T09:50:59.856Z,2.30
2019-01-29T09:53:29.031Z,2.30
2019-01-29T09:55:58.470Z,2.30
2019-01-29T09:58:27.985Z,2.30
2019-01-29T10:00:57.411Z,2.40
2019-01-29T10:03:26.794Z,2.40
2019-01-29T10:05:56.289Z,2.40
2019-01-29T10:08:25.665Z,2.40
2019-01-29T10:10:55.098Z,2.50
2019-01-29T10:13:24.625Z,2.50
2019-01-29T10:15:57.040Z,2.50
2019-01-29T10:18:26.482Z,2.60
2019-01-29T10:20:56.055Z,2.60
2019-01-29T10:23:25.645Z,2.60
2019-01-29T10:25:55.069Z,2.60
2019-01-29T10:28:24.529Z,2.60
2019-01-29T10:30:54.116Z,2.70
2019-01-29T10:33:23.635Z,2.70
2019-01-29T10:35:53.127Z,2.70
2019-01-29T10:38:22.665Z,2.80
2019-01-29T10:40:52.089Z,2.80
2019-01-29T10:43:25.017Z,2.90
2019-01-29T10:45:54.397Z,2.90
2019-01-29T10:48:23.899Z,3.00
2019-01-29T10:50:53.583Z,3.00
2019-01-29T10:53:23.015Z,3.10
2019-01-29T10:55:52.474Z,3.20
2019-01-29T10:58:21.957Z,3.20
2019-01-29T11:00:51.422Z,3.30
2019-01-29T11:03:20.908Z,3.40
2019-01-29T11:05:50.426Z,3.50
2019-01-29T11:08:19.909Z,3.50
2019-01-29T11:10:49.349Z,3.50
2019-01-29T11:13:18.845Z,3.50
2019-01-29T11:15:48.665Z,3.40
2019-01-29T11:18:18.265Z,3.50
2019-01-29T11:20:47.651Z,3.50
2019-01-29T11:23:17.333Z,3.60
2019-01-29T11:25:55.419Z,3.70
2019-01-29T11:28:18.117Z,3.80
2019-01-29T11:30:47.642Z,3.90
2019-01-29T11:33:17.209Z,4.00
2019-01-29T11:35:46.656Z,4.00
2019-01-29T11:38:19.013Z,4.10
2019-01-29T11:40:48.457Z,4.10
2019-01-29T11:43:18.948Z,4.10
2019-01-29T11:45:51.047Z,4.20
2019-01-29T11:48:20.539Z,4.20
2019-01-29T11:50:49.992Z,4.30
2019-01-29T11:53:19.483Z,4.40
2019-01-29T11:55:49.005Z,4.30
2019-01-29T11:58:18.506Z,4.20
2019-01-29T12:00:52.559Z,4.20
2019-01-29T12:03:21.987Z,4.20
2019-01-29T12:05:54.999Z,4.20
2019-01-29T12:08:24.497Z,4.20
2019-01-29T12:10:53.887Z,4.30
2019-01-29T12:13:23.313Z,4.30
2019-01-29T12:15:52.759Z,4.30
2019-01-29T12:18:22.258Z,4.20
2019-01-29T12:20:51.629Z,4.20
2019-01-29T12:23:21.049Z,4.20
2019-01-29T12:25:50.485Z,4.10
2019-01-29T12:28:20.006Z,4.10
2019-01-29T12:30:49.499Z,4.00
2019-01-29T12:33:20.103Z,4.00
2019-01-29T12:35:49.613Z,4.10
2019-01-29T12:38:19.064Z,4.10
2019-01-29T12:40:48.424Z,4.00
2019-01-29T12:43:17.950Z,3.90
2019-01-29T12:45:48.349Z,3.80
2019-01-29T12:48:18.054Z,3.70
2019-01-29T12:50:49.190Z,3.70
2019-01-29T12:53:19.634Z,3.70
2019-01-29T12:55:49.057Z,3.70
2019-01-29T12:58:18.518Z,3.70
2019-01-29T13:00:49.598Z,3.70
2019-01-29T13:03:21.182Z,3.70
2019-01-29T13:05:50.660Z,3.70
2019-01-29T13:08:20.207Z,3.70
2019-01-29T13:10:49.712Z,3.70
2019-01-29T13:13:19.500Z,3.70
2019-01-29T13:15:49.008Z,3.70
2019-01-29T13:18:18.646Z,3.70
2019-01-29T13:20:49.313Z,3.70
2019-01-29T13:23:18.816Z,3.70
2019-01-29T13:25:48.339Z,3.70
2019-01-29T13:28:17.908Z,3.70
2019-01-29T13:30:47.538Z,3.60
2019-01-29T13:33:17.089Z,3.60
2019-01-29T13:35:46.620Z,3.60
2019-01-29T13:38:16.050Z,3.70
2019-01-29T13:40:45.582Z,3.60
2019-01-29T13:43:15.087Z,3.70
2019-01-29T13:45:44.595Z,3.70
2019-01-29T13:48:13.967Z,3.80
2019-01-29T13:50:46.485Z,3.90
2019-01-29T13:53:15.983Z,3.90
2019-01-29T13:55:45.546Z,3.90
2019-01-29T13:58:15.134Z,3.80
2019-01-29T14:00:44.749Z,3.80
2019-01-29T14:03:14.242Z,3.70
2019-01-29T14:05:43.700Z,3.70
2019-01-29T14:08:13.148Z,3.60
2019-01-29T14:10:42.590Z,3.50
2019-01-29T14:13:12.289Z,3.50
2019-01-29T14:15:43.884Z,3.50
2019-01-29T14:18:13.971Z,3.40
2019-01-29T14:20:43.420Z,3.40
2019-01-29T14:23:12.868Z,3.30
2019-01-29T14:25:42.396Z,3.40
2019-01-29T14:28:11.986Z,3.40
2019-01-29T14:30:41.515Z,3.40
2019-01-29T14:33:11.007Z,3.40
2019-01-29T14:35:40.588Z,3.40
2019-01-29T14:38:16.998Z,3.40
2019-01-29T14:40:46.442Z,3.40
2019-01-29T14:43:18.981Z,3.40
2019-01-29T14:45:48.412Z,3.50
2019-01-29T14:48:17.867Z,3.50
2019-01-29T14:50:47.312Z,3.50
2019-01-29T14:53:16.760Z,3.40
2019-01-29T14:55:46.271Z,3.40
2019-01-29T14:58:15.735Z,3.40
2019-01-29T15:00:45.609Z,3.40
2019-01-29T15:03:15.017Z,3.40
2019-01-29T15:05:44.591Z,3.50
2019-01-29T15:08:14.104Z,3.40
2019-01-29T15:10:43.542Z,3.40
2019-01-29T15:13:14.016Z,3.40
2019-01-29T15:15:51.191Z,3.30
2019-01-29T15:18:25.255Z,3.30
2019-01-29T15:20:54.771Z,3.30
2019-01-29T15:23:25.370Z,3.30
2019-01-29T15:25:55.005Z,3.30
2019-01-29T15:28:24.541Z,3.20
2019-01-29T15:30:53.921Z,3.20
2019-01-29T15:33:23.450Z,3.00
2019-01-29T15:35:53.034Z,2.90
2019-01-29T15:38:22.493Z,2.90
2019-01-29T15:40:51.927Z,2.90
2019-01-29T15:43:21.525Z,2.80
2019-01-29T15:45:50.903Z,2.70
2019-01-29T15:48:20.373Z,2.70
2019-01-29T15:50:50.857Z,2.60
2019-01-29T15:53:20.373Z,2.60
2019-01-29T15:55:49.885Z,2.40
2019-01-29T15:58:19.412Z,2.40
2019-01-29T16:00:48.861Z,2.30
2019-01-29T16:03:18.315Z,2.30
2019-01-29T16:05:47.749Z,2.20
2019-01-29T16:08:17.135Z,2.20
2019-01-29T16:10:47.019Z,2.20
2019-01-29T16:13:16.488Z,2.20
2019-01-29T16:15:46.068Z,2.20
2019-01-29T16:18:15.670Z,2.10
2019-01-29T16:20:45.123Z,2.00
2019-01-29T16:23:14.638Z,2.00
2019-01-29T16:25:46.764Z,1.80
2019-01-29T16:28:16.233Z,1.80
2019-01-29T16:30:45.723Z,1.80
2019-01-29T16:33:15.181Z,1.70
2019-01-29T16:35:44.692Z,1.70
2019-01-29T16:38:14.289Z,1.60
2019-01-29T16:40:45.489Z,1.60
2019-01-29T16:43:14.997Z,1.60
2019-01-29T16:45:44.606Z,1.50
2019-01-29T16:48:14.106Z,1.40
2019-01-29T16:50:43.615Z,1.40
2019-01-29T16:53:13.089Z,1.40
2019-01-29T16:55:42.609Z,1.40
2019-01-29T16:58:12.281Z,1.30
2019-01-29T17:00:43.070Z,1.20
2019-01-29T17:03:12.626Z,1.20
2019-01-29T17:05:42.194Z,1.20
2019-01-29T17:08:12.862Z,1.30
2019-01-29T17:10:42.452Z,1.20
2019-01-29T17:13:14.548Z,1.20
2019-01-29T17:15:44.067Z,1.20
2019-01-29T17:18:13.581Z,1.10
2019-01-29T17:20:45.361Z,1.10
2019-01-29T17:23:14.923Z,1.10
2019-01-29T17:25:44.369Z,1.00
2019-01-29T17:28:13.819Z,0.90
2019-01-29T17:30:44.743Z,0.80
2019-01-29T17:33:16.553Z,0.90
2019-01-29T17:35:46.346Z,0.90
2019-01-29T17:38:15.928Z,0.90
2019-01-29T17:40:46.220Z,0.90
2019-01-29T17:43:15.793Z,0.90
2019-01-29T17:45:50.519Z,0.90
2019-01-29T17:48:20.121Z,0.80
2019-01-29T17:50:50.703Z,0.70
2019-01-29T17:53:20.243Z,0.70
2019-01-29T17:55:49.770Z,0.50
2019-01-29T17:58:19.272Z,0.40
2019-01-29T18:00:50.381Z,0.30
2019-01-29T18:03:19.880Z,0.30
2019-01-29T18:05:49.465Z,0.20
2019-01-29T18:08:19.030Z,0.10
2019-01-29T18:10:48.489Z,0.20
2019-01-29T18:13:17.993Z,0.20
2019-01-29T18:15:47.612Z,0.20
2019-01-29T18:18:17.047Z,0.10
2019-01-29T18:20:46.497Z,0.20
2019-01-29T18:23:15.958Z,0.10
2019-01-29T18:25:45.669Z,0.10
2019-01-29T18:28:15.285Z,0.10
2019-01-29T18:30:45.266Z,0.10
2019-01-29T18:33:14.707Z,0.00
2019-01-29T18:35:44.222Z,0.20
2019-01-29T18:38:13.752Z,0.20
2019-01-29T18:40:46.364Z,0.10
2019-01-29T18:43:16.206Z,0.00
2019-01-29T18:45:45.864Z,-0.10
2019-01-29T18:48:15.441Z,-0.10
2019-01-29T18:50:44.956Z,-0.10
2019-01-29T18:53:14.337Z,-0.10
2019-01-29T18:55:43.721Z,-0.10
2019-01-29T18:58:15.066Z,-0.20
2019-01-29T19:00:54.058Z,-0.30
2019-01-29T19:03:17.124Z,-0.30
2019-01-29T19:05:47.030Z,-0.20
2019-01-29T19:08:16.590Z,0.00
2019-01-29T19:10:46.416Z,0.10
2019-01-29T19:13:16.102Z,0.10
2019-01-29T19:15:45.669Z,0.10
2019-01-29T19:18:16.358Z,0.10
2019-01-29T19:20:45.939Z,0.10
2019-01-29T19:23:15.470Z,0.10
2019-01-29T19:25:45.258Z,0.20
2019-01-29T19:28:21.603Z,0.20
2019-01-29T19:30:45.987Z,0.10
2019-01-29T19:33:15.449Z,0.10
2019-01-29T19:35:45.206Z,0.10
2019-01-29T19:38:16.507Z,0.00
2019-01-29T19:40:46.292Z,0.10
2019-01-29T19:43:15.815Z,0.10
2019-01-29T19:45:45.240Z,0.10
2019-01-29T19:48:14.665Z,0.10
2019-01-29T19:50:44.360Z,0.10
2019-01-29T19:53:13.812Z,0.20
2019-01-29T19:55:43.260Z,0.20
2019-01-29T19:58:12.800Z,0.20
2019-01-29T20:00:42.715Z,0.20
2019-01-29T20:03:12.482Z,0.20
2019-01-29T20:05:42.622Z,0.20
2019-01-29T20:08:12.316Z,0.20
2019-01-29T20:10:41.998Z,0.20
2019-01-29T20:13:11.580Z,0.20
2019-01-29T20:15:41.103Z,0.20
2019-01-29T20:18:11.782Z,0.20
2019-01-29T20:20:43.476Z,0.20
2019-01-29T20:23:14.453Z,0.10
2019-01-29T20:25:43.949Z,0.00
2019-01-29T20:28:13.607Z,-0.10
2019-01-29T20:30:43.465Z,-0.20
2019-01-29T20:33:14.133Z,-0.20
2019-01-29T20:35:44.262Z,-0.20
2019-01-29T20:38:15.637Z,-0.20
2019-01-29T20:40:45.072Z,-0.20
2019-01-29T20:43:14.655Z,-0.20
2019-01-29T20:45:44.487Z,-0.10
2019-01-29T20:48:13.965Z,-0.10
2019-01-29T20:50:44.231Z,-0.10
2019-01-29T20:53:14.039Z,0.00
2019-01-29T20:55:43.549Z,-0.10
2019-01-29T20:58:13.081Z,-0.20
2019-01-29T21:00:43.253Z,-0.20
2019-01-29T21:03:13.253Z,-0.20
2019-01-29T21:05:43.089Z,-0.20
2019-01-29T21:08:12.682Z,-0.10
2019-01-29T21:10:45.687Z,-0.20
2019-01-29T21:13:15.215Z,-0.20
2019-01-29T21:15:44.676Z,-0.20
2019-01-29T21:18:14.137Z,-0.30
2019-01-29T21:20:43.520Z,-0.30
2019-01-29T21:23:12.968Z,-0.30
2019-01-29T21:25:42.995Z,-0.20
2019-01-29T21:28:12.629Z,-0.20
2019-01-29T21:30:44.015Z,-0.30
2019-01-29T21:33:13.750Z,-0.50
2019-01-29T21:35:44.213Z,-0.60
2019-01-29T21:38:13.899Z,-0.70
2019-01-29T21:40:43.485Z,-0.70
2019-01-29T21:43:13.139Z,-0.80
2019-01-29T21:45:43.811Z,-0.80
2019-01-29T21:48:13.621Z,-0.90
2019-01-29T21:50:43.144Z,-0.90
2019-01-29T21:53:12.631Z,-0.90
2019-01-29T21:55:42.119Z,-0.90
2019-01-29T21:58:11.631Z,-0.90
2019-01-29T22:00:42.861Z,-0.80
2019-01-29T22:03:12.298Z,-0.80
2019-01-29T22:05:41.742Z,-0.90
2019-01-29T22:08:11.339Z,-1.00
2019-01-29T22:10:40.908Z,-0.80
2019-01-29T22:13:10.650Z,-0.80
2019-01-29T22:15:40.256Z,-0.80
2019-01-29T22:18:09.826Z,-0.80
2019-01-29T22:20:39.351Z,-0.80
2019-01-29T22:23:09.136Z,-0.80
2019-01-29T22:25:38.898Z,-0.90
2019-01-29T22:28:08.769Z,-1.00
2019-01-29T22:30:40.498Z,-1.10
2019-01-29T22:33:10.094Z,-1.10
2019-01-29T22:35:39.674Z,-1.00
2019-01-29T22:38:09.205Z,-1.10
2019-01-29T22:40:38.704Z,-1.00
2019-01-29T22:43:08.161Z,-1.20
2019-01-29T22:45:37.884Z,-1.20
2019-01-29T22:48:07.468Z,-1.30
2019-01-29T22:50:41.153Z,-1.40
2019-01-29T22:53:10.849Z,-1.40
2019-01-29T22:55:40.306Z,-1.20
2019-01-29T22:58:09.936Z,-1.20
2019-01-29T23:01:00.643Z,-1.30
2019-01-29T23:03:37.212Z,-1.30
2019-01-29T23:06:09.762Z,-1.30
2019-01-29T23:08:39.202Z,-1.40
2019-01-29T23:11:08.566Z,-1.40
2019-01-29T23:13:37.954Z,-1.40
2019-01-29T23:16:07.378Z,-1.40
2019-01-29T23:18:36.766Z,-1.50
2019-01-29T23:21:06.352Z,-1.50
2019-01-29T23:23:36.340Z,-1.50
2019-01-29T23:26:05.976Z,-1.50
2019-01-29T23:28:35.353Z,-1.50
2019-01-29T23:31:05.019Z,-1.40
2019-01-29T23:33:34.455Z,-1.30
2019-01-29T23:36:04.186Z,-1.30
2019-01-29T23:38:33.652Z,-1.20
2019-01-29T23:41:03.098Z,-1.20
2019-01-29T23:43:32.556Z,-1.20
2019-01-29T23:46:02.365Z,-1.20
2019-01-29T23:48:31.820Z,-1.20
2019-01-29T23:51:01.183Z,-1.10
2019-01-29T23:53:30.654Z,-1.10
2019-01-29T23:56:00.088Z,-1.20
2019-01-29T23:58:30.054Z,-1.10
